Time;durP1;ratioP1;P1;durP2;ratioP2;P2;SDS_P1;SDS_P2;PMS_P1;PMS_P2;Temp;Humidity;BMP_temperature;BMP_pressure;BME280_temperature;BME280_humidity;BME280_pressure;Samples;Min_cycle;Max_cycle;Signal;HPM_P1;HPM_P2
2022/08/24 00:00:05;;;;;;;4.90;3.90;;;;;;;;;;5019210;28;20443;-53
2022/08/24 00:02:31;;;;;;;4.57;3.67;;;;;;;;;;5026156;28;20180;-53
2022/08/24 00:04:57;;;;;;;5.33;3.70;;;;;;;;;;4979535;28;20455;-53
2022/08/24 00:07:24;;;;;;;4.13;3.73;;;;;;;;;;5026856;28;20242;-53
2022/08/24 00:09:50;;;;;;;3.80;3.40;;;;;;;;;;5021588;28;20433;-52
2022/08/24 00:12:16;;;;;;;4.60;4.00;;;;;;;;;;5025588;28;20469;-54
2022/08/24 00:14:42;;;;;;;3.43;3.13;;;;;;;;;;5025446;28;20176;-53
2022/08/24 00:17:08;;;;;;;5.20;3.57;;;;;;;;;;5022609;28;20432;-52
2022/08/24 00:19:34;;;;;;;4.07;3.67;;;;;;;;;;5022583;28;20447;-53
2022/08/24 00:22:00;;;;;;;8.40;4.13;;;;;;;;;;5028956;28;20238;-52
2022/08/24 00:24:26;;;;;;;5.50;3.70;;;;;;;;;;5012628;28;20459;-52
2022/08/24 00:26:52;;;;;;;4.30;3.90;;;;;;;;;;5029200;28;20470;-53
2022/08/24 00:29:18;;;;;;;4.90;3.93;;;;;;;;;;5022827;28;20302;-52
2022/08/24 00:31:44;;;;;;;3.70;3.40;;;;;;;;;;5027679;28;20435;-52
2022/08/24 00:34:12;;;;;;;4.03;3.60;;;;;;;;;;5011795;28;20500;-53
2022/08/24 00:36:38;;;;;;;4.03;3.63;;;;;;;;;;5026069;28;20200;-53
2022/08/24 00:39:04;;;;;;;5.00;3.47;;;;;;;;;;4983848;28;20818;-53
2022/08/24 00:41:30;;;;;;;4.40;4.00;;;;;;;;;;5023742;28;20176;-54
2022/08/24 00:43:58;;;;;;;4.90;3.70;;;;;;;;;;5016670;28;20188;-53
2022/08/24 00:46:27;;;;;;;3.10;2.80;;;;;;;;;;5023556;28;20215;-52
2022/08/24 00:48:58;;;;;;;4.40;4.00;;;;;;;;;;5019956;28;20732;-52
2022/08/24 00:51:26;;;;;;;4.10;3.70;;;;;;;;;;5019742;28;20438;-53
2022/08/24 00:53:53;;;;;;;4.13;3.73;;;;;;;;;;4990823;28;22063;-53
2022/08/24 00:56:21;;;;;;;6.47;3.97;;;;;;;;;;5024895;28;20435;-53
2022/08/24 00:58:48;;;;;;;5.13;3.30;;;;;;;;;;5005430;28;20428;-53
2022/08/24 01:01:14;;;;;;;3.57;3.23;;;;;;;;;;5009282;28;20431;-53
2022/08/24 01:03:41;;;;;;;4.57;3.73;;;;;;;;;;5018893;28;20419;-53
2022/08/24 01:06:07;;;;;;;5.83;3.60;;;;;;;;;;5028265;28;20512;-53
2022/08/24 01:08:36;;;;;;;3.87;3.53;;;;;;;;;;4972404;28;20482;-52
2022/08/24 01:11:03;;;;;;;4.67;3.50;;;;;;;;;;5020442;28;20451;-53
2022/08/24 01:13:29;;;;;;;4.30;3.90;;;;;;;;;;5022502;28;21013;-53
2022/08/24 01:15:57;;;;;;;4.43;3.57;;;;;;;;;;5002605;28;20938;-52
2022/08/24 01:21:11;;;;;;;5.30;3.77;;;;;;;;;;5003242;28;20787;-52
2022/08/24 01:23:41;;;;;;;3.80;3.50;;;;;;;;;;5020713;28;20503;-53
2022/08/24 01:26:08;;;;;;;5.23;3.83;;;;;;;;;;5003295;28;20529;-53
2022/08/24 01:28:35;;;;;;;3.83;3.20;;;;;;;;;;5025326;28;20984;-52
2022/08/24 01:31:01;;;;;;;4.00;3.57;;;;;;;;;;5004677;28;20454;-53
2022/08/24 01:33:28;;;;;;;4.77;3.80;;;;;;;;;;5031040;28;20961;-54
2022/08/24 01:35:54;;;;;;;5.10;3.57;;;;;;;;;;5004661;28;20455;-52
2022/08/24 01:38:20;;;;;;;3.70;3.40;;;;;;;;;;5026246;28;20465;-52
2022/08/24 01:40:47;;;;;;;3.90;3.50;;;;;;;;;;4961838;28;20595;-52
2022/08/24 01:43:13;;;;;;;4.30;3.90;;;;;;;;;;5025705;28;20255;-52
2022/08/24 01:45:40;;;;;;;6.80;3.73;;;;;;;;;;5001045;28;20444;-51
2022/08/24 01:48:06;;;;;;;3.80;3.13;;;;;;;;;;5022722;28;20470;-52
2022/08/24 01:50:32;;;;;;;4.53;3.50;;;;;;;;;;5018583;28;20442;-52
2022/08/24 01:53:00;;;;;;;4.57;3.60;;;;;;;;;;5031885;28;20188;-51
2022/08/24 01:55:26;;;;;;;3.70;3.40;;;;;;;;;;4999976;28;20446;-52
2022/08/24 01:57:52;;;;;;;3.57;3.27;;;;;;;;;;5022507;28;20427;-52
2022/08/24 02:00:18;;;;;;;3.77;3.20;;;;;;;;;;5022896;28;20453;-52
2022/08/24 02:02:44;;;;;;;6.30;3.40;;;;;;;;;;5009087;28;20188;-51
2022/08/24 02:05:10;;;;;;;4.00;3.70;;;;;;;;;;4994334;28;20454;-52
2022/08/24 02:07:36;;;;;;;4.23;3.43;;;;;;;;;;5028194;28;20427;-51
2022/08/24 02:10:03;;;;;;;5.17;3.87;;;;;;;;;;4982012;28;20448;-52
2022/08/24 02:12:29;;;;;;;4.10;3.37;;;;;;;;;;5022014;28;20561;-52
2022/08/24 02:14:55;;;;;;;4.10;3.80;;;;;;;;;;4995487;28;20978;-52
2022/08/24 02:17:21;;;;;;;4.43;4.03;;;;;;;;;;5027418;28;20439;-51
2022/08/24 02:19:47;;;;;;;7.20;4.10;;;;;;;;;;5026867;28;20185;-52
2022/08/24 02:22:13;;;;;;;4.53;4.13;;;;;;;;;;5024016;28;20868;-52
2022/08/24 02:24:39;;;;;;;3.53;3.03;;;;;;;;;;4998052;28;21830;-52
2022/08/24 02:27:05;;;;;;;5.83;3.67;;;;;;;;;;5014067;28;20620;-52
2022/08/24 02:29:31;;;;;;;3.53;3.23;;;;;;;;;;5024299;28;20483;-52
2022/08/24 02:31:57;;;;;;;3.80;3.27;;;;;;;;;;5026665;28;20436;-52
2022/08/24 02:34:23;;;;;;;3.63;3.33;;;;;;;;;;5016859;28;20212;-52
2022/08/24 02:36:49;;;;;;;4.40;3.37;;;;;;;;;;5024199;28;20493;-54
2022/08/24 02:39:15;;;;;;;4.40;3.80;;;;;;;;;;5018331;28;20429;-53
2022/08/24 02:41:41;;;;;;;4.10;3.47;;;;;;;;;;5024662;28;20792;-53
2022/08/24 02:44:07;;;;;;;6.03;4.10;;;;;;;;;;4991282;28;21274;-51
2022/08/24 02:46:33;;;;;;;5.30;4.10;;;;;;;;;;5004112;28;20254;-52
2022/08/24 02:48:59;;;;;;;5.20;4.10;;;;;;;;;;5027703;28;20486;-54
2022/08/24 02:51:26;;;;;;;6.63;3.70;;;;;;;;;;5018796;28;20254;-54
2022/08/24 02:53:52;;;;;;;4.90;3.63;;;;;;;;;;5021166;28;21017;-52
2022/08/24 02:56:19;;;;;;;4.33;3.97;;;;;;;;;;5014229;28;20439;-54
2022/08/24 02:58:45;;;;;;;4.80;4.40;;;;;;;;;;5007716;28;20271;-53
2022/08/24 03:01:11;;;;;;;5.40;3.77;;;;;;;;;;5018680;28;20875;-51
2022/08/24 03:03:37;;;;;;;3.57;3.27;;;;;;;;;;5021089;28;20185;-52
2022/08/24 03:06:04;;;;;;;4.60;4.20;;;;;;;;;;5020277;28;20945;-52
2022/08/24 03:08:29;;;;;;;4.40;4.00;;;;;;;;;;5014063;28;20482;-52
2022/08/24 03:10:55;;;;;;;4.00;3.60;;;;;;;;;;5022580;28;20439;-55
2022/08/24 03:13:21;;;;;;;4.60;3.80;;;;;;;;;;5025480;28;20180;-52
2022/08/24 03:15:47;;;;;;;4.30;4.00;;;;;;;;;;4979707;28;20196;-51
2022/08/24 03:18:13;;;;;;;4.83;3.70;;;;;;;;;;5023095;28;20795;-52
2022/08/24 03:20:39;;;;;;;5.27;4.10;;;;;;;;;;5024199;28;20665;-52
2022/08/24 03:23:05;;;;;;;4.80;4.17;;;;;;;;;;5026809;28;20208;-52
2022/08/24 03:25:31;;;;;;;4.80;3.93;;;;;;;;;;5024489;28;20185;-52
2022/08/24 03:27:57;;;;;;;5.43;4.93;;;;;;;;;;5024324;28;20472;-52
2022/08/24 03:30:24;;;;;;;4.90;4.40;;;;;;;;;;5021305;28;21022;-51
2022/08/24 03:32:50;;;;;;;5.80;5.20;;;;;;;;;;5030329;28;20823;-51
2022/08/24 03:35:16;;;;;;;5.27;4.87;;;;;;;;;;5021697;28;20454;-52
2022/08/24 03:37:41;;;;;;;5.90;5.30;;;;;;;;;;5020391;28;20447;-53
2022/08/24 03:40:08;;;;;;;6.53;5.90;;;;;;;;;;5009135;28;20434;-53
2022/08/24 03:42:34;;;;;;;7.70;6.37;;;;;;;;;;5028151;28;20532;-52
2022/08/24 03:45:00;;;;;;;6.17;4.80;;;;;;;;;;5014216;28;20435;-52
2022/08/24 03:47:26;;;;;;;4.30;3.90;;;;;;;;;;5028228;28;20199;-53
2022/08/24 03:49:52;;;;;;;4.83;4.00;;;;;;;;;;4964524;28;21551;-53
2022/08/24 03:52:18;;;;;;;4.27;3.90;;;;;;;;;;5023535;28;20471;-53
2022/08/24 03:54:44;;;;;;;7.13;4.70;;;;;;;;;;5016806;28;20427;-53
2022/08/24 03:57:10;;;;;;;4.40;4.00;;;;;;;;;;5008811;28;20427;-52
2022/08/24 03:59:36;;;;;;;4.63;4.23;;;;;;;;;;5028338;28;20930;-53
2022/08/24 04:02:02;;;;;;;4.50;4.10;;;;;;;;;;5014989;28;20526;-53
2022/08/24 04:04:28;;;;;;;5.30;4.70;;;;;;;;;;5019850;28;20208;-53
2022/08/24 04:06:54;;;;;;;5.33;4.50;;;;;;;;;;5003176;28;20427;-53
2022/08/24 04:09:20;;;;;;;5.63;4.37;;;;;;;;;;5027030;28;21020;-52
2022/08/24 04:11:46;;;;;;;5.63;5.10;;;;;;;;;;5021704;28;20435;-52
2022/08/24 04:14:12;;;;;;;5.33;4.90;;;;;;;;;;5022234;28;20440;-53
2022/08/24 04:16:38;;;;;;;5.13;4.63;;;;;;;;;;5022369;28;20177;-53
2022/08/24 04:19:04;;;;;;;4.70;4.30;;;;;;;;;;5024852;28;20478;-54
2022/08/24 04:21:31;;;;;;;4.93;4.53;;;;;;;;;;4981259;28;20538;-53
2022/08/24 04:23:57;;;;;;;5.50;4.23;;;;;;;;;;5025127;28;20444;-54
2022/08/24 04:26:23;;;;;;;4.50;4.20;;;;;;;;;;5005215;28;20446;-54
2022/08/24 04:28:50;;;;;;;4.97;4.33;;;;;;;;;;4993977;28;20246;-53
2022/08/24 04:31:17;;;;;;;5.80;4.30;;;;;;;;;;5017819;28;20431;-54
2022/08/24 04:33:43;;;;;;;8.97;4.77;;;;;;;;;;5027242;28;20475;-53
2022/08/24 04:36:09;;;;;;;7.60;5.13;;;;;;;;;;5008814;28;20717;-53
2022/08/24 04:38:35;;;;;;;7.00;5.23;;;;;;;;;;5030358;28;20474;-54
2022/08/24 04:41:03;;;;;;;10.30;5.40;;;;;;;;;;5024475;28;20934;-54
2022/08/24 04:43:29;;;;;;;5.53;4.70;;;;;;;;;;5028366;28;20435;-54
2022/08/24 04:45:55;;;;;;;4.93;4.23;;;;;;;;;;5016869;28;20969;-53
2022/08/24 04:48:21;;;;;;;5.23;4.50;;;;;;;;;;5024824;28;20219;-54
2022/08/24 04:50:48;;;;;;;5.67;5.17;;;;;;;;;;4981355;28;20443;-53
2022/08/24 04:53:14;;;;;;;7.20;5.80;;;;;;;;;;5021017;28;20486;-52
2022/08/24 04:55:42;;;;;;;8.13;5.07;;;;;;;;;;4993538;28;20431;-54
2022/08/24 04:58:08;;;;;;;5.03;4.50;;;;;;;;;;5028232;28;20494;-54
2022/08/24 05:00:34;;;;;;;5.47;4.97;;;;;;;;;;5012892;28;21328;-53
2022/08/24 05:03:00;;;;;;;11.67;5.53;;;;;;;;;;5030509;28;20872;-53
2022/08/24 05:05:26;;;;;;;5.50;4.27;;;;;;;;;;5007215;28;20804;-56
2022/08/24 05:07:53;;;;;;;7.17;5.10;;;;;;;;;;5032241;28;20258;-53
2022/08/24 05:10:20;;;;;;;6.20;4.90;;;;;;;;;;5014125;28;21071;-53
2022/08/24 05:12:46;;;;;;;6.13;5.37;;;;;;;;;;5031045;28;20824;-53
2022/08/24 05:15:12;;;;;;;6.23;5.63;;;;;;;;;;5022821;28;20415;-54
2022/08/24 05:17:39;;;;;;;5.20;4.73;;;;;;;;;;5023413;28;20193;-53
2022/08/24 05:20:07;;;;;;;8.00;5.97;;;;;;;;;;5015758;28;20424;-55
2022/08/24 05:22:33;;;;;;;7.77;5.50;;;;;;;;;;5026177;28;20450;-54
2022/08/24 05:24:59;;;;;;;5.77;5.20;;;;;;;;;;5002012;28;21890;-54
2022/08/24 05:27:25;;;;;;;6.17;5.57;;;;;;;;;;5006330;28;20473;-53
2022/08/24 05:29:54;;;;;;;5.43;4.93;;;;;;;;;;5022371;28;20811;-54
2022/08/24 05:32:20;;;;;;;5.40;4.90;;;;;;;;;;5027548;28;20493;-54
2022/08/24 05:34:46;;;;;;;6.10;5.50;;;;;;;;;;5026878;28;20959;-54
2022/08/24 05:37:12;;;;;;;6.07;5.57;;;;;;;;;;4993817;28;20493;-54
2022/08/24 05:39:38;;;;;;;7.40;6.23;;;;;;;;;;5030192;28;20447;-54
2022/08/24 05:42:04;;;;;;;5.97;4.47;;;;;;;;;;5026326;28;20172;-55
2022/08/24 05:44:30;;;;;;;5.90;5.30;;;;;;;;;;5027883;28;20842;-54
2022/08/24 05:46:57;;;;;;;6.23;5.27;;;;;;;;;;5020284;28;20443;-54
2022/08/24 05:49:23;;;;;;;5.30;4.70;;;;;;;;;;5012308;28;20216;-53
2022/08/24 05:51:49;;;;;;;5.57;5.07;;;;;;;;;;5022035;28;20863;-54
2022/08/24 05:54:15;;;;;;;7.40;5.40;;;;;;;;;;5029293;28;20518;-54
2022/08/24 05:56:43;;;;;;;5.03;4.53;;;;;;;;;;4978447;28;21220;-53
2022/08/24 05:59:09;;;;;;;6.20;5.30;;;;;;;;;;5026403;28;20434;-53
2022/08/24 06:01:35;;;;;;;6.37;4.73;;;;;;;;;;5018166;28;20459;-53
2022/08/24 06:04:01;;;;;;;5.87;4.60;;;;;;;;;;5025131;28;20423;-53
2022/08/24 06:06:27;;;;;;;6.63;5.50;;;;;;;;;;5001533;28;20807;-54
2022/08/24 06:08:55;;;;;;;7.97;5.30;;;;;;;;;;5028027;28;20498;-53
2022/08/24 06:11:23;;;;;;;6.33;5.17;;;;;;;;;;5025647;28;20419;-53
2022/08/24 06:13:49;;;;;;;5.37;4.87;;;;;;;;;;5025962;28;20465;-53
2022/08/24 06:16:15;;;;;;;6.83;4.67;;;;;;;;;;5024223;28;20448;-53
2022/08/24 06:18:41;;;;;;;6.43;5.83;;;;;;;;;;5027195;28;20434;-53
2022/08/24 06:21:08;;;;;;;6.60;5.60;;;;;;;;;;5026254;28;20522;-52
2022/08/24 06:23:34;;;;;;;5.77;4.70;;;;;;;;;;5019853;28;20418;-53
2022/08/24 06:28:45;;;;;;;5.80;4.57;;;;;;;;;;5018015;28;20525;-53
2022/08/24 06:31:11;;;;;;;6.67;4.73;;;;;;;;;;5021530;28;20776;-54
2022/08/24 06:33:37;;;;;;;5.50;4.70;;;;;;;;;;5012978;28;20447;-53
2022/08/24 06:36:03;;;;;;;6.03;5.43;;;;;;;;;;5008902;28;20447;-54
2022/08/24 06:38:29;;;;;;;6.27;4.93;;;;;;;;;;5022816;28;20311;-54
2022/08/24 06:40:55;;;;;;;5.57;5.07;;;;;;;;;;5026507;28;20419;-54
2022/08/24 06:43:22;;;;;;;5.57;5.03;;;;;;;;;;5026947;28;21089;-53
2022/08/24 06:45:48;;;;;;;5.63;5.03;;;;;;;;;;5025705;28;20457;-54
2022/08/24 06:48:15;;;;;;;10.50;5.80;;;;;;;;;;5021728;28;20924;-53
2022/08/24 06:50:41;;;;;;;5.90;5.20;;;;;;;;;;5019946;28;20434;-53
2022/08/24 06:53:07;;;;;;;6.43;5.77;;;;;;;;;;5026192;28;20431;-53
2022/08/24 06:55:32;;;;;;;6.53;5.87;;;;;;;;;;5002111;28;20583;-52
2022/08/24 06:57:58;;;;;;;5.73;5.27;;;;;;;;;;4994035;28;20458;-52
2022/08/24 07:00:25;;;;;;;6.90;5.80;;;;;;;;;;5023108;28;20436;-52
2022/08/24 07:02:51;;;;;;;9.13;6.47;;;;;;;;;;4977894;28;20461;-53
2022/08/24 07:05:17;;;;;;;8.00;5.50;;;;;;;;;;5006314;28;20489;-53
2022/08/24 07:07:43;;;;;;;7.03;5.97;;;;;;;;;;5006914;28;20427;-52
2022/08/24 07:10:09;;;;;;;6.80;5.43;;;;;;;;;;5026899;28;20622;-53
2022/08/24 07:12:35;;;;;;;5.80;5.10;;;;;;;;;;5024947;28;20796;-53
2022/08/24 07:15:02;;;;;;;5.80;5.20;;;;;;;;;;5028874;28;20423;-54
2022/08/24 07:17:28;;;;;;;7.07;5.50;;;;;;;;;;4990816;28;20455;-53
2022/08/24 07:19:54;;;;;;;6.63;6.07;;;;;;;;;;5027145;28;20435;-52
2022/08/24 07:22:20;;;;;;;7.10;6.10;;;;;;;;;;5021638;28;20446;-53
2022/08/24 07:24:46;;;;;;;5.33;4.83;;;;;;;;;;5023297;28;20204;-52
2022/08/24 07:27:13;;;;;;;7.63;5.70;;;;;;;;;;5024938;28;20855;-54
2022/08/24 07:29:39;;;;;;;6.00;5.40;;;;;;;;;;5025818;28;20484;-53
2022/08/24 07:32:05;;;;;;;6.73;5.93;;;;;;;;;;4962787;28;20448;-53
2022/08/24 07:34:31;;;;;;;5.33;4.83;;;;;;;;;;5020784;28;20447;-53
2022/08/24 07:36:59;;;;;;;7.50;5.77;;;;;;;;;;5016010;28;20439;-53
2022/08/24 07:39:25;;;;;;;10.43;5.73;;;;;;;;;;5029230;28;20470;-53
2022/08/24 07:41:51;;;;;;;5.90;5.33;;;;;;;;;;5024545;28;20446;-53
2022/08/24 07:44:17;;;;;;;6.20;5.23;;;;;;;;;;5030094;28;20435;-53
2022/08/24 07:46:43;;;;;;;5.53;5.03;;;;;;;;;;4998789;28;20488;-53
2022/08/24 07:49:09;;;;;;;9.73;5.70;;;;;;;;;;5030477;28;20581;-54
2022/08/24 07:51:36;;;;;;;10.40;5.10;;;;;;;;;;5020456;28;20432;-53
2022/08/24 07:54:02;;;;;;;6.40;4.73;;;;;;;;;;5026637;28;20441;-53
2022/08/24 07:56:28;;;;;;;6.27;4.70;;;;;;;;;;5022439;28;20444;-54
2022/08/24 07:58:54;;;;;;;6.30;5.30;;;;;;;;;;5028482;28;20439;-54
2022/08/24 08:01:21;;;;;;;7.13;5.43;;;;;;;;;;5016763;28;20192;-54
2022/08/24 08:03:47;;;;;;;8.43;5.40;;;;;;;;;;5023719;28;20490;-54
2022/08/24 08:06:13;;;;;;;4.80;4.23;;;;;;;;;;4980178;28;25581;-54
2022/08/24 08:08:39;;;;;;;4.83;4.43;;;;;;;;;;5015277;28;21097;-53
2022/08/24 08:11:06;;;;;;;7.23;4.73;;;;;;;;;;5021151;28;20415;-55
2022/08/24 08:13:32;;;;;;;4.50;3.97;;;;;;;;;;5019878;28;20436;-53
2022/08/24 08:15:59;;;;;;;5.23;3.93;;;;;;;;;;5011708;28;20432;-54
2022/08/24 08:18:25;;;;;;;4.87;3.90;;;;;;;;;;5024135;28;20479;-54
2022/08/24 08:20:51;;;;;;;3.90;3.60;;;;;;;;;;5022165;28;20426;-53
2022/08/24 08:26:02;;;;;;;3.77;3.17;;;;;;;;;;5014582;28;20398;-54
2022/08/24 08:28:32;;;;;;;5.40;2.73;;;;;;;;;;5024384;28;20997;-54
2022/08/24 08:31:01;;;;;;;4.23;3.60;;;;;;;;;;5025493;28;20172;-54
2022/08/24 08:33:27;;;;;;;4.50;3.30;;;;;;;;;;5025211;28;20515;-54
2022/08/24 08:35:55;;;;;;;3.53;3.23;;;;;;;;;;5022798;28;20435;-54
2022/08/24 08:38:21;;;;;;;4.30;3.90;;;;;;;;;;5010712;28;20442;-53
2022/08/24 08:40:54;;;;;;;5.17;3.93;;;;;;;;;;5004930;28;20538;-55
2022/08/24 08:43:23;;;;;;;4.10;3.30;;;;;;;;;;5010267;28;20458;-53
2022/08/24 08:45:52;;;;;;;4.97;2.87;;;;;;;;;;5024564;28;20452;-55
2022/08/24 08:48:37;;;;;;;4.70;3.00;;;;;;;;;;5001373;28;20482;-54
2022/08/24 08:51:18;;;;;;;3.87;3.27;;;;;;;;;;5010076;28;20458;-53
2022/08/24 08:53:57;;;;;;;5.97;3.80;;;;;;;;;;5007550;28;20538;-54
2022/08/24 08:56:39;;;;;;;5.00;2.77;;;;;;;;;;5014173;28;20443;-53
2022/08/24 08:59:05;;;;;;;3.80;2.80;;;;;;;;;;5016894;28;20447;-53
2022/08/24 09:01:37;;;;;;;3.20;2.73;;;;;;;;;;5026776;28;20514;-54
2022/08/24 09:04:13;;;;;;;3.60;2.80;;;;;;;;;;5009338;28;20788;-54
2022/08/24 09:06:48;;;;;;;2.93;2.50;;;;;;;;;;5026862;28;20438;-54
2022/08/24 09:09:20;;;;;;;3.23;2.93;;;;;;;;;;5027137;28;20458;-54
2022/08/24 09:12:13;;;;;;;5.60;3.37;;;;;;;;;;5006507;28;20455;-56
2022/08/24 09:14:58;;;;;;;4.50;2.87;;;;;;;;;;5026919;28;20453;-54
2022/08/24 09:17:36;;;;;;;4.93;2.97;;;;;;;;;;5011016;28;20447;-54
2022/08/24 09:20:20;;;;;;;3.73;2.97;;;;;;;;;;5027348;28;20519;-55
2022/08/24 09:22:47;;;;;;;3.33;2.57;;;;;;;;;;5008984;28;20438;-55
2022/08/24 09:25:19;;;;;;;5.00;3.20;;;;;;;;;;5028145;28;20493;-54
2022/08/24 09:28:04;;;;;;;3.30;3.00;;;;;;;;;;5006161;28;20435;-54
2022/08/24 09:30:56;;;;;;;5.70;3.23;;;;;;;;;;5026018;28;20442;-55
2022/08/24 09:33:23;;;;;;;3.23;2.93;;;;;;;;;;5010742;28;20494;-54
2022/08/24 09:35:57;;;;;;;3.90;3.50;;;;;;;;;;5032826;28;20457;-54
2022/08/24 09:38:28;;;;;;;3.43;3.13;;;;;;;;;;5010156;28;20434;-54
2022/08/24 09:40:54;;;;;;;3.10;2.90;;;;;;;;;;5030619;28;20423;-54
2022/08/24 09:43:23;;;;;;;4.00;3.23;;;;;;;;;;4981405;28;20457;-55
2022/08/24 09:46:08;;;;;;;2.80;2.30;;;;;;;;;;5028481;28;20450;-54
2022/08/24 09:48:52;;;;;;;3.17;2.70;;;;;;;;;;5011527;28;20487;-54
2022/08/24 09:51:24;;;;;;;3.83;2.60;;;;;;;;;;5005255;28;20447;-53
2022/08/24 09:54:09;;;;;;;3.37;2.40;;;;;;;;;;5018366;28;20949;-52
2022/08/24 09:56:40;;;;;;;5.07;2.70;;;;;;;;;;5020256;28;20481;-54
2022/08/24 09:59:06;;;;;;;4.77;2.40;;;;;;;;;;5022416;28;20514;-54
2022/08/24 10:01:51;;;;;;;2.47;2.27;;;;;;;;;;5010965;28;20527;-54
2022/08/24 10:04:30;;;;;;;12.00;3.00;;;;;;;;;;5030208;28;20751;-54
2022/08/24 10:07:03;;;;;;;3.53;2.43;;;;;;;;;;5022667;28;21101;-54
2022/08/24 10:09:41;;;;;;;4.00;2.20;;;;;;;;;;5016565;28;21231;-54
2022/08/24 10:12:14;;;;;;;2.70;2.30;;;;;;;;;;4982584;28;20509;-54
2022/08/24 10:14:52;;;;;;;3.47;2.90;;;;;;;;;;5006574;28;20918;-54
2022/08/24 10:17:26;;;;;;;5.13;2.73;;;;;;;;;;4992876;28;20448;-54
2022/08/24 10:20:11;;;;;;;3.70;2.60;;;;;;;;;;5011227;28;20471;-54
2022/08/24 10:22:42;;;;;;;3.07;2.27;;;;;;;;;;5015369;28;20438;-53
2022/08/24 10:25:14;;;;;;;4.47;2.40;;;;;;;;;;5025188;28;20976;-54
2022/08/24 10:27:40;;;;;;;2.70;2.50;;;;;;;;;;5003894;28;20431;-53
2022/08/24 10:30:24;;;;;;;3.23;2.80;;;;;;;;;;5018814;28;20485;-54
2022/08/24 10:33:27;;;;;;;2.97;2.67;;;;;;;;;;5016866;28;20462;-54
2022/08/24 10:36:02;;;;;;;4.50;2.20;;;;;;;;;;4933363;29;20436;-54
2022/08/24 10:41:50;;;;;;;4.73;3.30;;;;;;;;;;5028328;28;20418;-54
2022/08/24 10:44:51;;;;;;;2.60;2.37;;;;;;;;;;5023259;28;20415;-54
2022/08/24 10:47:17;;;;;;;2.77;2.57;;;;;;;;;;4903439;28;21732;-55
2022/08/24 10:50:02;;;;;;;4.03;2.40;;;;;;;;;;4990354;28;20482;-56
2022/08/24 10:52:41;;;;;;;3.10;2.27;;;;;;;;;;5024314;28;20195;-53
2022/08/24 10:55:12;;;;;;;3.43;1.90;;;;;;;;;;5023047;28;20438;-54
2022/08/24 10:57:57;;;;;;;3.17;2.87;;;;;;;;;;5021854;28;20506;-54
2022/08/24 11:00:26;;;;;;;7.03;2.43;;;;;;;;;;5007311;28;20537;-53
2022/08/24 11:03:04;;;;;;;2.67;2.40;;;;;;;;;;5018268;28;20439;-54
2022/08/24 11:05:30;;;;;;;2.63;2.30;;;;;;;;;;5027925;28;20459;-54
2022/08/24 11:07:59;;;;;;;4.10;2.80;;;;;;;;;;5003754;28;20447;-54
2022/08/24 11:10:26;;;;;;;2.97;2.77;;;;;;;;;;5024318;28;20625;-54
2022/08/24 11:12:52;;;;;;;4.50;2.93;;;;;;;;;;5017083;28;20430;-54
2022/08/24 11:15:19;;;;;;;2.67;2.47;;;;;;;;;;5027156;28;20747;-53
2022/08/24 11:18:01;;;;;;;5.90;2.07;;;;;;;;;;4993397;28;20596;-54
2022/08/24 11:20:27;;;;;;;2.50;1.93;;;;;;;;;;5024889;28;20447;-53
2022/08/24 11:22:57;;;;;;;7.50;3.90;;;;;;;;;;5024914;28;20457;-54
2022/08/24 11:25:27;;;;;;;2.50;2.30;;;;;;;;;;5027343;28;20431;-53
2022/08/24 11:27:57;;;;;;;3.83;2.00;;;;;;;;;;4984826;28;20605;-54
2022/08/24 11:30:24;;;;;;;2.80;2.03;;;;;;;;;;5020368;28;20504;-53
2022/08/24 11:32:55;;;;;;;2.40;2.20;;;;;;;;;;5020110;28;20427;-54
2022/08/24 11:35:24;;;;;;;3.50;2.07;;;;;;;;;;5027742;28;20435;-53
2022/08/24 11:37:50;;;;;;;2.97;2.23;;;;;;;;;;5012384;28;20450;-55
2022/08/24 11:40:17;;;;;;;3.37;2.50;;;;;;;;;;5016885;28;20938;-54
2022/08/24 11:42:43;;;;;;;5.33;2.67;;;;;;;;;;5022632;28;20436;-54
2022/08/24 11:45:09;;;;;;;4.10;2.20;;;;;;;;;;5024794;28;20435;-54
2022/08/24 11:47:53;;;;;;;2.97;2.00;;;;;;;;;;5007545;28;20764;-55
2022/08/24 11:50:19;;;;;;;2.53;2.10;;;;;;;;;;5010967;28;20196;-53
2022/08/24 11:52:51;;;;;;;4.33;2.47;;;;;;;;;;5018287;28;20435;-55
2022/08/24 11:55:19;;;;;;;2.33;2.00;;;;;;;;;;5021382;28;20180;-54
2022/08/24 11:58:05;;;;;;;4.23;1.90;;;;;;;;;;5015962;28;20431;-55
2022/08/24 12:00:47;;;;;;;2.83;2.20;;;;;;;;;;5026953;28;20434;-55
2022/08/24 12:03:13;;;;;;;7.33;2.20;;;;;;;;;;5020829;28;20439;-55
2022/08/24 12:06:08;;;;;;;2.40;1.97;;;;;;;;;;5021311;28;20891;-55
2022/08/24 12:08:38;;;;;;;3.00;2.70;;;;;;;;;;4936738;28;20684;-55
2022/08/24 12:11:04;;;;;;;2.60;2.10;;;;;;;;;;5007322;28;20427;-54
2022/08/24 12:13:43;;;;;;;2.37;2.13;;;;;;;;;;5017925;28;20445;-55
2022/08/24 12:16:16;;;;;;;5.17;2.10;;;;;;;;;;5020535;28;20451;-55
2022/08/24 12:18:54;;;;;;;3.20;2.30;;;;;;;;;;4999431;28;20435;-55
2022/08/24 12:21:21;;;;;;;3.50;2.07;;;;;;;;;;5026705;28;20540;-55
2022/08/24 12:23:48;;;;;;;3.10;2.13;;;;;;;;;;4978670;28;20439;-55
2022/08/24 12:26:33;;;;;;;3.00;2.47;;;;;;;;;;5027318;28;20435;-54
2022/08/24 12:29:00;;;;;;;2.73;2.53;;;;;;;;;;5013464;28;20478;-55
2022/08/24 12:31:35;;;;;;;4.93;2.70;;;;;;;;;;5005202;28;20454;-54
2022/08/24 12:34:04;;;;;;;2.33;2.10;;;;;;;;;;5016214;28;20432;-55
2022/08/24 12:36:35;;;;;;;3.10;2.47;;;;;;;;;;5025478;28;20435;-54
2022/08/24 12:39:08;;;;;;;4.03;2.17;;;;;;;;;;5006981;28;20439;-55
2022/08/24 12:41:36;;;;;;;2.40;2.00;;;;;;;;;;5027606;28;20469;-55
2022/08/24 12:44:04;;;;;;;2.67;2.30;;;;;;;;;;5006413;28;20435;-55
2022/08/24 12:46:30;;;;;;;2.93;2.63;;;;;;;;;;5029013;28;20493;-55
2022/08/24 12:49:00;;;;;;;2.60;2.13;;;;;;;;;;4999673;28;20528;-55
2022/08/24 12:51:47;;;;;;;2.40;2.00;;;;;;;;;;5009732;28;20466;-55
2022/08/24 12:54:28;;;;;;;2.40;2.17;;;;;;;;;;5022854;28;20434;-55
2022/08/24 12:56:58;;;;;;;3.43;2.30;;;;;;;;;;5027649;28;20529;-55
2022/08/24 12:59:31;;;;;;;2.87;2.30;;;;;;;;;;4960859;28;20459;-55
2022/08/24 13:02:04;;;;;;;2.00;1.80;;;;;;;;;;5010934;28;20438;-55
2022/08/24 13:04:33;;;;;;;3.23;1.90;;;;;;;;;;5015813;28;20434;-55
2022/08/24 13:07:05;;;;;;;2.40;2.20;;;;;;;;;;5018525;28;20455;-55
2022/08/24 13:09:35;;;;;;;2.83;1.80;;;;;;;;;;5018269;28;21086;-55
2022/08/24 13:12:21;;;;;;;2.90;2.00;;;;;;;;;;5029283;28;20435;-55
2022/08/24 13:14:49;;;;;;;2.60;2.30;;;;;;;;;;5014033;28;20427;-54
2022/08/24 13:17:15;;;;;;;2.43;1.77;;;;;;;;;;5010214;28;20442;-55
2022/08/24 13:19:42;;;;;;;3.13;1.93;;;;;;;;;;4979753;28;20459;-55
2022/08/24 13:22:08;;;;;;;2.63;2.00;;;;;;;;;;5019875;28;20181;-55
2022/08/24 13:24:34;;;;;;;2.47;2.27;;;;;;;;;;5020492;28;20434;-55
2022/08/24 13:27:12;;;;;;;4.43;2.03;;;;;;;;;;5032295;28;21005;-55
2022/08/24 13:29:39;;;;;;;2.13;1.70;;;;;;;;;;4981060;28;20223;-55
2022/08/24 13:32:05;;;;;;;2.33;2.10;;;;;;;;;;5026149;28;20938;-54
2022/08/24 13:34:42;;;;;;;3.60;2.13;;;;;;;;;;5017705;28;20446;-55
2022/08/24 13:37:13;;;;;;;2.10;1.90;;;;;;;;;;5027397;28;20187;-55
2022/08/24 13:39:57;;;;;;;4.23;2.37;;;;;;;;;;5003600;28;20462;-55
2022/08/24 13:42:42;;;;;;;2.20;1.83;;;;;;;;;;5026669;28;20428;-55
2022/08/24 13:45:14;;;;;;;2.63;2.03;;;;;;;;;;5025359;28;20462;-55
2022/08/24 13:47:47;;;;;;;3.57;1.87;;;;;;;;;;5011161;28;20451;-55
2022/08/24 13:50:31;;;;;;;5.33;1.73;;;;;;;;;;5020388;28;21016;-55
2022/08/24 13:53:13;;;;;;;2.57;2.33;;;;;;;;;;5026595;28;20431;-55
2022/08/24 13:55:55;;;;;;;2.33;2.10;;;;;;;;;;5023673;28;20864;-55
2022/08/24 13:58:24;;;;;;;2.10;1.90;;;;;;;;;;5021815;28;20423;-55
2022/08/24 14:00:51;;;;;;;3.30;2.27;;;;;;;;;;5014978;28;20434;-55
2022/08/24 14:03:23;;;;;;;3.40;2.00;;;;;;;;;;4998764;28;20431;-55
2022/08/24 14:06:05;;;;;;;2.80;1.97;;;;;;;;;;4998080;28;20447;-55
2022/08/24 14:08:45;;;;;;;2.50;2.30;;;;;;;;;;5003478;28;20474;-55
2022/08/24 14:11:23;;;;;;;12.47;2.47;;;;;;;;;;5011912;28;20534;-54
2022/08/24 14:13:49;;;;;;;2.73;2.10;;;;;;;;;;5020286;28;20905;-55
2022/08/24 14:19:20;;;;;;;2.93;1.90;;;;;;;;;;5009063;28;20195;-54
2022/08/24 14:21:48;;;;;;;2.77;2.17;;;;;;;;;;5011514;28;20431;-54
2022/08/24 14:24:23;;;;;;;4.90;2.20;;;;;;;;;;4990995;28;20430;-55
2022/08/24 14:26:50;;;;;;;4.17;3.00;;;;;;;;;;5027686;28;20816;-54
2022/08/24 14:29:16;;;;;;;3.07;2.17;;;;;;;;;;5010031;28;20478;-54
2022/08/24 14:31:48;;;;;;;4.80;2.43;;;;;;;;;;5029304;28;20428;-52
2022/08/24 14:34:24;;;;;;;2.70;2.50;;;;;;;;;;5022095;28;20438;-53
2022/08/24 14:36:58;;;;;;;2.50;2.30;;;;;;;;;;5006598;28;20440;-53
2022/08/24 14:39:43;;;;;;;2.33;2.03;;;;;;;;;;4964203;28;20456;-54
2022/08/24 14:42:15;;;;;;;3.00;2.03;;;;;;;;;;5020581;28;20435;-52
2022/08/24 14:44:47;;;;;;;2.63;1.83;;;;;;;;;;5002211;28;20435;-52
2022/08/24 14:47:16;;;;;;;3.03;2.70;;;;;;;;;;5027457;28;20533;-53
2022/08/24 14:50:03;;;;;;;3.80;2.13;;;;;;;;;;5000290;28;20479;-52
2022/08/24 14:52:29;;;;;;;2.60;2.33;;;;;;;;;;5009488;28;20534;-53
2022/08/24 14:55:03;;;;;;;3.50;2.10;;;;;;;;;;5025771;28;20841;-53
2022/08/24 14:57:48;;;;;;;2.70;2.50;;;;;;;;;;5011129;28;20180;-52
2022/08/24 15:00:21;;;;;;;2.73;2.50;;;;;;;;;;5007627;28;20475;-53
2022/08/24 15:02:50;;;;;;;3.97;2.67;;;;;;;;;;5026196;28;20439;-54
2022/08/24 15:05:28;;;;;;;2.43;2.23;;;;;;;;;;5023554;28;20464;-52
2022/08/24 15:07:54;;;;;;;4.87;2.90;;;;;;;;;;5022849;28;20423;-52
2022/08/24 15:10:23;;;;;;;3.30;3.00;;;;;;;;;;5023507;28;21559;-53